Terminal Aerodrome Forecast
Issued by NWS Bismarck, ND

Home | Current Version | Previous Version | Text Only | Print | Product List | Glossary Off
Versions: 1 2 3 4 5 6 7 8 9 10 11 12 13 14 15

000
FTUS43 KBIS 290700 AAA
TAFISN
TAF AMD
KISN 290724Z 2907/3006 35010KT P6SM SCT070
      TEMPO 2907/2911 30020G30KT 5SM -SHRA OVC050
     FM291800 01011KT P6SM SCT250
     FM300300 05009KT P6SM SKC=

USA.gov is the U.S. government's official web portal to all federal, state and local government web resources and services.